| time (UTC) | temp F | wind direction | speed MPH | gust MPH | rain 1hr in | rain 24hr in | rain mn in | humidity % | barometer mb |
| 20260510224530 | 54 | 229 | 0.0 | 0.0 | 0.01 | 0.46 | 0.45 | 97 | 1014.9 |
| 20260510223024 | 54 | 229 | 0.0 | 0.0 | 0.02 | 0.46 | 0.45 | 97 | 1014.9 |
| 20260510221524 | 54 | 229 | 0.0 | 0.0 | 0.03 | 0.46 | 0.45 | 97 | 1014.9 |
| 20260510220024 | 54 | 229 | 0.0 | 0.0 | 0.03 | 0.46 | 0.45 | 97 | 1014.9 |
| 20260510214525 | 54 | 229 | 0.0 | 0.0 | 0.02 | 0.46 | 0.44 | 97 | 1014.9 |
| 20260510213023 | 54 | 229 | 0.0 | 0.0 | 0.01 | 0.44 | 0.43 | 96 | 1014.9 |
| 20260510211522 | 54 | 229 | 0.0 | 0.0 | 0.00 | 0.43 | 0.42 | 96 | 1014.8 |
| 20260510210020 | 54 | 229 | 0.0 | 0.0 | 0.00 | 0.48 | 0.42 | 96 | 1014.8 |
| 20260510204519 | 54 | 229 | 0.0 | 0.0 | 0.00 | 0.48 | 0.42 | 96 | 1014.7 |
| 20260510203017 | 54 | 229 | 0.0 | 0.0 | 0.00 | 0.48 | 0.42 | 96 | 1014.5 |
| 20260510201516 | 54 | 91 | 0.0 | 0.0 | 0.00 | 0.48 | 0.42 | 95 | 1014.2 |
| 20260510200017 | 54 | 91 | 0.0 | 0.0 | 0.00 | 0.54 | 0.42 | 95 | 1014.0 |
| 20260510194515 | 54 | 91 | 0.0 | 0.0 | 0.00 | 0.54 | 0.42 | 94 | 1013.6 |
| 20260510193015 | 55 | 91 | 0.0 | 1.0 | 0.01 | 0.54 | 0.42 | 94 | 1013.8 |
| 20260510191516 | 55 | 176 | 0.0 | 0.0 | 0.02 | 0.54 | 0.42 | 94 | 1013.5 |
| 20260510190013 | 56 | 176 | 0.0 | 0.0 | 0.04 | 0.69 | 0.42 | 94 | 1013.6 |
| 20260510184515 | 56 | 176 | 0.0 | 0.0 | 0.04 | 0.69 | 0.42 | 93 | 1013.5 |
| 20260510183026 | 56 | 176 | 0.0 | 0.0 | 0.04 | 0.69 | 0.41 | 93 | 1013.5 |
| 20260510181514 | 56 | 171 | 0.0 | 0.0 | 0.08 | 0.67 | 0.39 | 91 | 1013.4 |
| 20260510180013 | 56 | 171 | 0.0 | 0.0 | 0.06 | 0.88 | 0.38 | 90 | 1013.4 |
| 20260510174514 | 57 | 260 | 0.0 | 2.0 | 0.07 | 0.88 | 0.38 | 89 | 1013.5 |
| 20260510173012 | 58 | 257 | 1.0 | 3.0 | 0.06 | 0.87 | 0.36 | 85 | 1013.8 |
| 20260510171511 | 59 | 74 | 0.0 | 1.0 | 0.02 | 0.82 | 0.31 | 82 | 1013.3 |
| 20260510170009 | 59 | 82 | 0.0 | 2.0 | 0.02 | 0.83 | 0.31 | 79 | 1013.2 |
| 20260510164515 | 60 | 86 | 0.0 | 1.0 | 0.01 | 0.82 | 0.31 | 77 | 1013.3 |
| 20260510163011 | 60 | 86 | 0.0 | 2.0 | 0.00 | 0.81 | 0.30 | 74 | 1013.4 |
| 20260510161507 | 60 | 241 | 0.0 | 1.0 | 0.00 | 0.81 | 0.30 | 73 | 1013.4 |
| 20260510160006 | 60 | 243 | 0.0 | 1.0 | 0.00 | 0.84 | 0.30 | 74 | 1013.4 |
| 20260510154508 | 60 | 203 | 1.0 | 3.0 | 0.00 | 0.84 | 0.30 | 73 | 1013.3 |
| 20260510153005 | 60 | 150 | 0.0 | 6.0 | 0.00 | 0.84 | 0.30 | 75 | 1013.5 |
| 20260510151505 | 60 | 221 | 1.0 | 4.0 | 0.00 | 0.84 | 0.30 | 73 | 1013.7 |
| 20260510150007 | 61 | 186 | 3.0 | 8.0 | 0.00 | 0.94 | 0.30 | 67 | 1013.7 |
| 20260510144504 | 62 | 152 | 2.0 | 8.0 | 0.00 | 0.94 | 0.30 | 65 | 1013.3 |
| 20260510143003 | 63 | 201 | 1.0 | 5.0 | 0.00 | 0.94 | 0.30 | 66 | 1013.4 |
| 20260510141503 | 64 | 239 | 1.0 | 6.0 | 0.00 | 0.94 | 0.30 | 63 | 1013.4 |
| 20260510140001 | 63 | 238 | 3.0 | 8.0 | 0.00 | 0.99 | 0.30 | 64 | 1013.5 |
| 20260510134601 | 63 | 205 | 3.0 | 8.0 | 0.00 | 0.99 | 0.30 | 62 | 1013.6 |
| 20260510134502 | 63 | 151 | 4.0 | 8.0 | 0.00 | 0.99 | 0.30 | 61 | 1013.7 |
| 20260510133105 | 62 | 98 | 4.0 | 14.0 | 0.00 | 0.99 | 0.30 | 61 | 1013.7 |
| 20260510131604 | 63 | 208 | 2.0 | 9.0 | 0.00 | 0.99 | 0.30 | 68 | 1013.7 |
| 20260510130055 | 62 | 233 | 4.0 | 11.0 | 0.00 | 0.99 | 0.30 | 66 | 1013.8 |
| 20260510124610 | 62 | 194 | 5.0 | 9.0 | 0.00 | 0.99 | 0.30 | 61 | 1014.0 |
| 20260510123055 | 62 | 179 | 4.0 | 11.0 | 0.00 | 0.99 | 0.30 | 62 | 1013.9 |
| 20260510121551 | 62 | 224 | 3.0 | 10.0 | 0.00 | 0.99 | 0.30 | 64 | 1014.1 |
| 20260510120037 | 62 | 235 | 6.0 | 12.0 | 0.00 | 0.99 | 0.30 | 66 | 1014.1 |
| 20260510114635 | 61 | 223 | 2.0 | 7.0 | 0.00 | 0.99 | 0.30 | 68 | 1014.1 |
| 20260510110055 | 60 | 200 | 4.0 | 12.0 | 0.00 | 1.02 | 0.30 | 70 | 1014.0 |
| 20260510101516 | 57 | 245 | 2.0 | 9.0 | 0.12 | 1.02 | 0.30 | 78 | 1014.1 |
| 20260510094505 | 54 | 153 | 1.0 | 6.0 | 0.12 | 1.02 | 0.30 | 90 | 1014.2 |
| 20260510093003 | 55 | 200 | 0.0 | 7.0 | 0.10 | 1.00 | 0.28 | 89 | 1014.2 |
| 20260510091502 | 55 | 207 | 0.0 | 7.0 | 0.06 | 0.90 | 0.18 | 89 | 1013.7 |
| 20260510090117 | 55 | 117 | 1.0 | 4.0 | 0.07 | 0.90 | 0.18 | 93 | 1013.5 |
| 20260510084600 | 54 | 224 | 0.0 | 1.0 | 0.07 | 0.90 | 0.18 | 95 | 1013.6 |
| 20260510083052 | 52 | 200 | 0.0 | 4.0 | 0.07 | 0.90 | 0.18 | 94 | 1013.5 |
| 20260510081550 | 52 | 239 | 0.0 | 1.0 | 0.02 | 0.85 | 0.13 | 96 | 1013.5 |
| 20260510080059 | 52 | 79 | 0.0 | 1.0 | 0.00 | 0.83 | 0.11 | 97 | 1013.4 |
| 20260510074546 | 51 | 148 | 0.0 | 2.0 | 0.00 | 0.83 | 0.11 | 98 | 1013.3 |
| 20260510073043 | 50 | 89 | 0.0 | 1.0 | 0.01 | 0.83 | 0.11 | 98 | 1013.4 |
| 20260510071542 | 49 | 164 | 0.0 | 3.0 | 0.03 | 0.83 | 0.11 | 98 | 1013.2 |
| 20260510070047 | 49 | 217 | 0.0 | 3.0 | 0.03 | 0.83 | 0.11 | 99 | 1013.0 |
| 20260510063045 | 48 | 75 | 0.0 | 3.0 | 0.02 | 0.82 | 0.10 | 98 | 1012.9 |
| 20260510061547 | 47 | 244 | 0.0 | 0.0 | 0.00 | 0.80 | 0.08 | 98 | 1012.7 |
| 20260510060040 | 47 | 244 | 0.0 | 0.0 | 0.00 | 0.80 | 0.08 | 98 | 1012.6 |
| 20260510054537 | 46 | 244 | 0.0 | 1.0 | 0.00 | 0.80 | 0.08 | 98 | 1012.5 |
| 20260510053037 | 46 | 244 | 0.0 | 0.0 | 0.00 | 0.80 | 0.08 | 98 | 1012.6 |
| 20260510051536 | 47 | 244 | 0.0 | 1.0 | 0.00 | 0.80 | 0.08 | 98 | 1012.6 |
| 20260510050035 | 47 | 237 | 0.0 | 1.0 | 0.00 | 0.80 | 0.08 | 98 | 1012.5 |
| 20260510044536 | 47 | 236 | 0.0 | 1.0 | 0.00 | 0.80 | 0.08 | 98 | 1012.4 |
| 20260510043036 | 47 | 233 | 0.0 | 0.0 | 0.00 | 0.80 | 0.08 | 98 | 1012.4 |
| 20260510041537 | 48 | 232 | 0.0 | 0.0 | 0.02 | 0.80 | 0.08 | 98 | 1012.4 |
| 20260510040032 | 48 | 101 | 0.0 | 0.0 | 0.02 | 0.80 | 0.08 | 98 | 1012.4 |
| 20260510034530 | 48 | 101 | 0.0 | 0.0 | 0.02 | 0.80 | 0.08 | 98 | 1012.6 |
| 20260510033030 | 47 | 101 | 0.0 | 0.0 | 0.02 | 0.80 | 0.08 | 98 | 1012.7 |
| 20260510031534 | 47 | 258 | 0.0 | 0.0 | 0.00 | 0.78 | 0.06 | 98 | 1012.7 |
| 20260510030031 | 46 | 258 | 0.0 | 0.0 | 0.01 | 0.78 | 0.06 | 98 | 1012.7 |
| 20260510024532 | 46 | 258 | 0.0 | 0.0 | 0.01 | 0.78 | 0.06 | 98 | 1012.7 |
| 20260510023027 | 46 | 258 | 0.0 | 0.0 | 0.01 | 0.78 | 0.06 | 98 | 1012.8 |
| 20260510021525 | 46 | 251 | 0.0 | 0.0 | 0.01 | 0.78 | 0.06 | 97 | 1012.9 |
| 20260510020023 | 47 | 251 | 0.0 | 0.0 | 0.00 | 0.77 | 0.06 | 97 | 1013.0 |
| 20260510014526 | 47 | 251 | 0.0 | 0.0 | 0.00 | 0.77 | 0.06 | 97 | 1012.9 |
| 20260510013022 | 47 | 250 | 0.0 | 1.0 | 0.00 | 0.77 | 0.06 | 98 | 1012.9 |
| 20260510011522 | 47 | 243 | 0.0 | 1.0 | 0.00 | 0.77 | 0.06 | 97 | 1013.2 |
| 20260510010014 | 48 | 245 | 0.0 | 1.0 | 0.00 | 0.78 | 0.06 | 97 | 1013.3 |
| 20260510004511 | 49 | 214 | 0.0 | 1.0 | 0.01 | 0.78 | 0.06 | 97 | 1013.3 |
| 20260510003009 | 49 | 210 | 0.0 | 0.0 | 0.02 | 0.78 | 0.06 | 97 | 1013.5 |
| 20260510001508 | 50 | 192 | 0.0 | 0.0 | 0.04 | 0.78 | 0.06 | 97 | 1013.5 |
| 20260510000007 | 50 | 192 | 0.0 | 0.0 | 0.06 | 0.78 | 0.06 | 97 | 1013.6 |
| 20260509234517 | 50 | 192 | 0.0 | 0.0 | 0.06 | 0.77 | 0.05 | 97 | 1013.9 |
| 20260509233008 | 50 | 249 | 0.0 | 2.0 | 0.06 | 0.76 | 0.04 | 97 | 1013.8 |
| 20260509231502 | 49 | 226 | 0.0 | 0.0 | 0.03 | 0.74 | 0.02 | 97 | 1013.8 |
| 20260509230107 | 49 | 251 | 0.0 | 2.0 | 0.02 | 0.72 | 0.72 | 97 | 1013.9 |